Time;durP1;ratioP1;P1;durP2;ratioP2;P2;SDS_P1;SDS_P2;PMS_P1;PMS_P2;Temp;Humidity;BMP_temperature;BMP_pressure;BME280_temperature;BME280_humidity;BME280_pressure;Samples;Min_cycle;Max_cycle;Signal;HPM_P1;HPM_P2
2023/01/27 00:01:52;;;;;;;38.77;24.17;;;3.10;99.90;;;;;;4979606;28;20481;-79
2023/01/27 00:04:20;;;;;;;39.15;24.60;;;3.10;99.90;;;;;;4981590;28;20418;-79
2023/01/27 00:06:47;;;;;;;39.95;23.13;;;3.10;99.90;;;;;;4964119;28;20441;-79
2023/01/27 00:09:15;;;;;;;39.33;21.85;;;3.00;99.90;;;;;;4950400;29;20444;-79
2023/01/27 00:14:26;;;;;;;36.72;23.63;;;3.10;99.90;;;;;;4968646;28;20917;-79
2023/01/27 00:16:53;;;;;;;31.65;22.05;;;3.10;99.90;;;;;;4975934;28;20424;-78
2023/01/27 00:19:21;;;;;;;29.98;20.75;;;3.00;99.90;;;;;;4978444;28;20431;-78
2023/01/27 00:24:38;;;;;;;28.30;19.27;;;3.00;99.90;;;;;;4968021;28;20416;-79
2023/01/27 00:27:07;;;;;;;29.92;20.92;;;3.00;99.90;;;;;;4965489;28;20446;-79
2023/01/27 00:29:34;;;;;;;25.92;18.88;;;3.00;99.90;;;;;;4967325;28;20461;-77
2023/01/27 00:34:46;;;;;;;29.50;20.65;;;2.90;99.90;;;;;;4969388;28;20523;-79
2023/01/27 00:37:13;;;;;;;31.30;20.50;;;2.90;99.90;;;;;;4970311;28;20424;-78
2023/01/27 00:39:40;;;;;;;27.33;20.20;;;2.80;99.90;;;;;;4969527;28;20552;-79
2023/01/27 00:42:07;;;;;;;31.67;20.97;;;2.90;99.90;;;;;;4970076;28;20421;-78
2023/01/27 00:44:33;;;;;;;28.40;19.90;;;2.80;99.90;;;;;;4968558;28;20423;-79
2023/01/27 00:47:00;;;;;;;28.63;19.30;;;2.80;99.90;;;;;;4966958;28;20419;-79
2023/01/27 00:49:27;;;;;;;30.77;19.70;;;2.80;99.90;;;;;;4968133;28;20626;-77
2023/01/27 00:51:55;;;;;;;29.55;19.42;;;2.90;99.90;;;;;;4966816;28;20647;-79
2023/01/27 00:54:22;;;;;;;29.17;20.40;;;2.90;99.90;;;;;;4966965;28;20906;-79
2023/01/27 00:56:49;;;;;;;28.30;19.67;;;3.00;99.90;;;;;;4967280;28;20419;-78
2023/01/27 00:59:15;;;;;;;27.90;20.00;;;3.00;99.90;;;;;;4966332;28;20428;-79
2023/01/27 01:01:42;;;;;;;25.90;18.27;;;3.00;99.90;;;;;;4966611;28;20435;-79
2023/01/27 01:04:09;;;;;;;27.35;18.90;;;3.00;99.90;;;;;;4965407;28;20432;-78
2023/01/27 01:06:35;;;;;;;25.40;16.98;;;3.00;99.90;;;;;;4966094;28;20439;-79
2023/01/27 01:09:04;;;;;;;25.17;17.03;;;3.00;99.90;;;;;;4964281;28;20554;-79
2023/01/27 01:11:32;;;;;;;27.00;17.17;;;3.00;99.90;;;;;;4963246;28;20481;-79
2023/01/27 01:13:59;;;;;;;26.55;17.45;;;3.00;99.90;;;;;;4965933;28;20447;-78
2023/01/27 01:16:26;;;;;;;28.23;16.70;;;3.00;99.90;;;;;;4966221;28;20440;-78
2023/01/27 01:18:53;;;;;;;22.83;16.58;;;3.00;99.90;;;;;;4966341;28;20776;-79
2023/01/27 01:21:19;;;;;;;24.13;16.17;;;3.00;99.90;;;;;;4974460;23;20442;-73
2023/01/27 01:23:46;;;;;;;24.77;16.10;;;3.10;99.90;;;;;;4964129;28;20441;-72
2023/01/27 01:26:16;;;;;;;19.85;15.32;;;3.10;99.90;;;;;;4968746;28;20455;-72
2023/01/27 01:28:44;;;;;;;22.20;15.15;;;3.20;99.90;;;;;;4967521;28;20424;-72
2023/01/27 01:31:13;;;;;;;18.75;14.55;;;3.20;99.90;;;;;;4966337;28;20428;-72
2023/01/27 01:33:40;;;;;;;20.80;14.20;;;3.20;99.90;;;;;;4947057;28;20437;-73
2023/01/27 01:36:09;;;;;;;18.70;14.40;;;3.30;99.90;;;;;;4946612;29;20441;-73
2023/01/27 01:38:36;;;;;;;19.50;14.75;;;3.30;99.90;;;;;;4955627;28;20451;-73
2023/01/27 01:41:03;;;;;;;18.52;14.07;;;3.30;99.90;;;;;;4966099;28;21146;-73
2023/01/27 01:43:31;;;;;;;20.85;14.20;;;3.30;99.90;;;;;;4967089;28;20423;-72
2023/01/27 01:45:59;;;;;;;18.52;14.50;;;3.30;99.90;;;;;;4950854;29;20444;-73
2023/01/27 01:48:34;;;;;;;15.38;11.95;;;3.30;99.90;;;;;;4951108;29;20432;-72
2023/01/27 01:51:09;;;;;;;14.82;12.75;;;3.30;99.90;;;;;;4965948;28;20431;-73
2023/01/27 01:53:40;;;;;;;15.15;12.45;;;3.20;99.90;;;;;;4962453;28;20445;-73
2023/01/27 01:56:12;;;;;;;16.00;12.55;;;3.20;99.90;;;;;;4962549;28;20438;-72
2023/01/27 01:58:41;;;;;;;17.40;13.32;;;3.20;99.90;;;;;;4967485;28;20424;-74
2023/01/27 02:01:08;;;;;;;14.63;12.23;;;3.20;99.90;;;;;;4969538;28;20427;-73
2023/01/27 02:03:41;;;;;;;15.35;12.10;;;3.30;99.90;;;;;;4969116;28;20455;-73
2023/01/27 02:06:08;;;;;;;15.32;12.90;;;3.30;99.90;;;;;;4959698;28;20432;-73
2023/01/27 02:08:39;;;;;;;16.85;11.85;;;3.20;99.90;;;;;;4956940;28;20443;-74
2023/01/27 02:11:07;;;;;;;15.82;11.40;;;3.20;99.90;;;;;;4967050;28;20424;-74
2023/01/27 02:13:33;;;;;;;12.75;10.23;;;3.20;99.90;;;;;;4968175;28;20783;-74
2023/01/27 02:16:02;;;;;;;13.52;10.88;;;3.20;99.90;;;;;;4971441;28;20432;-73
2023/01/27 02:18:29;;;;;;;12.73;9.68;;;3.30;99.90;;;;;;4975474;28;20486;-73
2023/01/27 02:20:57;;;;;;;11.10;9.80;;;3.20;99.90;;;;;;4971144;28;20431;-72
2023/01/27 02:23:39;;;;;;;12.98;9.70;;;3.20;99.90;;;;;;4964289;28;20439;-75
2023/01/27 02:26:13;;;;;;;11.70;9.07;;;3.20;99.90;;;;;;4960517;28;20500;-74
2023/01/27 02:28:40;;;;;;;11.02;9.43;;;3.30;99.90;;;;;;4949624;29;20425;-75
2023/01/27 02:31:07;;;;;;;11.23;9.30;;;3.30;99.90;;;;;;4949593;28;20437;-74
2023/01/27 02:33:34;;;;;;;12.10;9.20;;;3.30;99.90;;;;;;4949320;29;20654;-74
2023/01/27 02:36:05;;;;;;;12.07;9.80;;;3.30;99.90;;;;;;4949272;28;20441;-74
2023/01/27 02:38:35;;;;;;;11.80;10.27;;;3.30;99.90;;;;;;4964898;28;20435;-74
2023/01/27 02:41:08;;;;;;;11.82;10.40;;;3.40;99.90;;;;;;4964447;28;20428;-74
2023/01/27 02:43:36;;;;;;;12.57;9.98;;;3.40;99.90;;;;;;4962384;28;20441;-72
2023/01/27 02:46:03;;;;;;;15.57;11.40;;;3.40;99.90;;;;;;4967353;28;20842;-73
2023/01/27 02:48:30;;;;;;;12.48;10.73;;;3.40;99.90;;;;;;4967256;28;20815;-73
2023/01/27 02:50:56;;;;;;;12.75;10.57;;;3.30;99.90;;;;;;4964936;28;20425;-73
2023/01/27 02:53:23;;;;;;;13.20;10.40;;;3.30;99.90;;;;;;4961213;28;20946;-72
2023/01/27 02:55:50;;;;;;;11.93;10.02;;;3.30;99.90;;;;;;4966652;28;20436;-72
2023/01/27 02:58:17;;;;;;;15.57;10.30;;;3.30;99.90;;;;;;4948567;29;20429;-72
2023/01/27 03:00:45;;;;;;;12.70;10.00;;;3.30;99.90;;;;;;4949590;29;20417;-72
2023/01/27 03:03:12;;;;;;;11.30;10.10;;;3.30;99.90;;;;;;4957849;28;21330;-74
2023/01/27 03:05:39;;;;;;;12.73;10.00;;;3.30;99.90;;;;;;4968164;28;20443;-73
2023/01/27 03:08:06;;;;;;;9.75;8.75;;;3.30;99.90;;;;;;4961131;28;21020;-73
2023/01/27 03:10:33;;;;;;;12.18;8.63;;;3.30;99.90;;;;;;4968574;28;20424;-74
2023/01/27 03:13:00;;;;;;;8.97;8.00;;;3.30;99.90;;;;;;4966579;28;20431;-73
2023/01/27 03:18:14;;;;;;;8.40;7.20;;;3.30;99.90;;;;;;4949424;28;20437;-72
2023/01/27 03:20:42;;;;;;;8.70;7.30;;;3.30;99.90;;;;;;4964696;28;20463;-72
2023/01/27 03:23:09;;;;;;;8.10;5.77;;;3.30;99.90;;;;;;4963279;28;20528;-73
2023/01/27 03:25:36;;;;;;;6.60;5.90;;;3.30;99.90;;;;;;4968040;28;20424;-73
2023/01/27 03:28:03;;;;;;;6.40;5.78;;;3.30;99.90;;;;;;4951491;28;20445;-73
2023/01/27 03:30:30;;;;;;;6.45;5.45;;;3.30;99.90;;;;;;4948497;29;20430;-73
2023/01/27 03:32:56;;;;;;;6.00;5.00;;;3.30;99.90;;;;;;4953183;29;20422;-74
2023/01/27 03:35:33;;;;;;;6.70;4.80;;;3.30;99.90;;;;;;4955037;28;20437;-73
2023/01/27 03:46:19;;;;;;;4.80;4.18;;;3.30;99.90;;;;;;4952221;29;20517;-72
2023/01/27 03:48:49;;;;;;;6.07;5.07;;;3.30;99.90;;;;;;4960235;28;20424;-72
2023/01/27 03:51:19;;;;;;;5.60;4.80;;;3.30;99.90;;;;;;4968554;28;20479;-72
2023/01/27 03:53:46;;;;;;;5.18;4.68;;;3.30;99.90;;;;;;4973358;28;20424;-72
2023/01/27 03:56:13;;;;;;;5.35;4.65;;;3.30;99.90;;;;;;4975654;28;20440;-72
2023/01/27 03:58:40;;;;;;;5.05;4.55;;;3.30;99.90;;;;;;4972941;28;20428;-72
2023/01/27 04:01:13;;;;;;;6.15;5.10;;;3.30;99.90;;;;;;4971901;28;20439;-71
2023/01/27 04:09:13;;;;;;;6.10;5.20;;;3.30;99.90;;;;;;4950037;29;20413;-72
2023/01/27 04:11:55;;;;;;;5.70;5.20;;;3.30;99.90;;;;;;4948449;29;20472;-72
2023/01/27 04:14:22;;;;;;;5.93;5.35;;;3.30;99.90;;;;;;4951991;28;20798;-72
2023/01/27 04:16:50;;;;;;;6.20;5.60;;;3.30;99.90;;;;;;4967185;28;20443;-72
2023/01/27 04:19:17;;;;;;;6.90;5.88;;;3.30;99.90;;;;;;4967974;28;21080;-72
2023/01/27 04:21:45;;;;;;;6.07;5.47;;;3.30;99.90;;;;;;4960082;28;20479;-72
2023/01/27 04:24:23;;;;;;;6.50;5.80;;;3.30;99.90;;;;;;4968832;28;20443;-72
2023/01/27 04:26:53;;;;;;;6.57;5.90;;;3.20;99.90;;;;;;4970851;28;20945;-73
2023/01/27 04:29:21;;;;;;;7.72;6.47;;;3.20;99.90;;;;;;4970155;28;20938;-73
2023/01/27 04:31:48;;;;;;;8.18;6.80;;;3.10;99.90;;;;;;4970254;28;20428;-72
2023/01/27 04:34:14;;;;;;;8.10;7.07;;;3.10;99.90;;;;;;4971272;28;20455;-73
2023/01/27 04:36:42;;;;;;;8.45;7.57;;;3.10;99.90;;;;;;4965748;28;20435;-72
2023/01/27 04:39:11;;;;;;;7.95;6.93;;;3.10;99.90;;;;;;4970066;28;20424;-73
2023/01/27 04:41:39;;;;;;;9.00;7.32;;;3.10;99.90;;;;;;4968230;28;20929;-72
2023/01/27 04:44:06;;;;;;;8.20;7.30;;;3.10;99.90;;;;;;4965821;28;20424;-73
2023/01/27 04:46:34;;;;;;;8.68;7.40;;;3.10;99.90;;;;;;4961968;28;20447;-73
2023/01/27 04:49:01;;;;;;;9.23;7.47;;;3.10;99.90;;;;;;4967257;28;20443;-72
2023/01/27 04:51:28;;;;;;;7.93;6.63;;;3.10;99.90;;;;;;4966363;28;20440;-72
2023/01/27 04:53:55;;;;;;;8.50;7.40;;;3.10;99.90;;;;;;4969603;28;20451;-73
2023/01/27 04:56:26;;;;;;;9.68;7.22;;;3.10;99.90;;;;;;4967637;28;20446;-73
2023/01/27 04:58:53;;;;;;;8.40;7.60;;;3.10;99.90;;;;;;4947397;28;20531;-72
2023/01/27 05:01:20;;;;;;;9.43;8.20;;;3.10;99.90;;;;;;4950825;28;20439;-71
2023/01/27 05:03:47;;;;;;;8.57;6.75;;;3.10;99.90;;;;;;4968992;28;20428;-72
2023/01/27 05:06:14;;;;;;;9.95;8.20;;;3.10;99.90;;;;;;4956019;28;20449;-71
2023/01/27 05:08:41;;;;;;;8.77;7.88;;;3.20;99.90;;;;;;4958423;28;20447;-73
2023/01/27 05:11:08;;;;;;;8.45;7.30;;;3.20;99.90;;;;;;4961834;28;20444;-73
2023/01/27 05:13:36;;;;;;;10.75;8.82;;;3.10;99.90;;;;;;4952568;28;20451;-73
2023/01/27 05:16:12;;;;;;;9.65;8.65;;;3.10;99.90;;;;;;4961907;28;20440;-72
2023/01/27 05:18:39;;;;;;;9.38;7.40;;;3.10;99.90;;;;;;4967951;28;20432;-71
2023/01/27 05:21:07;;;;;;;9.93;8.30;;;3.20;99.90;;;;;;4955986;28;20446;-72
2023/01/27 05:23:37;;;;;;;9.43;7.93;;;3.20;99.90;;;;;;4959208;28;20461;-73
2023/01/27 05:26:07;;;;;;;10.40;8.77;;;3.20;99.90;;;;;;4967303;28;20423;-73
2023/01/27 05:28:34;;;;;;;10.15;8.25;;;3.20;99.90;;;;;;4965285;28;20432;-73
2023/01/27 05:31:04;;;;;;;9.50;8.10;;;3.20;99.90;;;;;;4967499;28;20424;-71
2023/01/27 05:33:31;;;;;;;9.50;8.50;;;3.20;99.90;;;;;;4964799;28;20435;-73
2023/01/27 05:36:02;;;;;;;9.70;8.30;;;3.20;99.90;;;;;;4975199;28;20439;-72
2023/01/27 05:38:29;;;;;;;10.43;8.38;;;3.20;99.90;;;;;;4965350;28;20688;-72
2023/01/27 05:40:57;;;;;;;9.65;8.52;;;3.20;99.90;;;;;;4964608;28;20460;-74
2023/01/27 05:43:25;;;;;;;9.27;8.30;;;3.20;99.90;;;;;;4953133;28;20460;-73
2023/01/27 05:45:52;;;;;;;10.35;8.60;;;3.20;99.90;;;;;;4967250;28;20431;-74
2023/01/27 05:48:20;;;;;;;12.18;9.18;;;3.20;99.90;;;;;;4963308;28;20514;-73
2023/01/27 05:50:55;;;;;;;11.25;9.25;;;3.20;99.90;;;;;;4961706;28;20452;-73
2023/01/27 05:53:22;;;;;;;8.93;8.02;;;3.20;99.90;;;;;;4957851;28;20518;-73
2023/01/27 05:55:49;;;;;;;10.27;9.20;;;3.20;99.90;;;;;;4967085;28;20428;-73
2023/01/27 05:58:16;;;;;;;10.70;8.60;;;3.30;99.90;;;;;;4960030;28;20440;-73
2023/01/27 06:00:43;;;;;;;10.23;9.13;;;3.30;99.90;;;;;;4960732;28;21100;-74
2023/01/27 06:03:10;;;;;;;9.07;8.18;;;3.20;99.90;;;;;;4957065;28;20428;-73
2023/01/27 06:05:38;;;;;;;10.55;8.50;;;3.30;99.90;;;;;;4959377;28;20550;-73
2023/01/27 06:08:05;;;;;;;9.15;8.15;;;3.30;99.90;;;;;;4957804;28;20439;-73
2023/01/27 06:10:35;;;;;;;9.20;8.20;;;3.30;99.90;;;;;;4968467;28;20962;-73
2023/01/27 06:13:03;;;;;;;9.98;8.55;;;3.30;99.90;;;;;;4964386;28;20839;-72
2023/01/27 06:15:29;;;;;;;10.15;8.52;;;3.30;99.90;;;;;;4964659;28;20422;-73
2023/01/27 06:17:56;;;;;;;8.90;8.00;;;3.30;99.90;;;;;;4967671;28;20436;-74
2023/01/27 06:20:24;;;;;;;9.60;8.00;;;3.30;99.90;;;;;;4963194;28;20929;-73
2023/01/27 06:22:52;;;;;;;8.98;7.35;;;3.30;99.90;;;;;;4954922;28;20450;-73
2023/01/27 06:25:19;;;;;;;9.02;7.90;;;3.30;99.90;;;;;;4968044;28;20436;-73
2023/01/27 06:27:45;;;;;;;9.30;7.95;;;3.30;99.90;;;;;;4969166;28;20432;-73
2023/01/27 06:30:13;;;;;;;10.23;8.70;;;3.30;99.90;;;;;;4969380;28;20428;-73
2023/01/27 06:32:40;;;;;;;9.60;8.60;;;3.40;99.90;;;;;;4969502;28;20431;-73
2023/01/27 06:35:07;;;;;;;9.27;8.38;;;3.40;99.90;;;;;;4957123;28;20769;-72
2023/01/27 06:37:34;;;;;;;10.10;9.10;;;3.40;99.90;;;;;;4961598;28;20519;-74
2023/01/27 06:40:02;;;;;;;9.88;8.77;;;3.30;99.90;;;;;;4965171;28;20424;-72
2023/01/27 06:42:29;;;;;;;10.55;9.32;;;3.40;99.90;;;;;;4968589;28;20814;-72
2023/01/27 06:44:56;;;;;;;10.48;9.07;;;3.40;99.90;;;;;;4965100;28;21117;-72
2023/01/27 06:47:23;;;;;;;10.65;9.55;;;3.40;99.90;;;;;;4967541;28;20950;-74
2023/01/27 06:49:49;;;;;;;11.10;9.40;;;3.40;99.90;;;;;;4951389;28;20437;-73
2023/01/27 06:52:16;;;;;;;10.68;9.05;;;3.40;99.90;;;;;;4961012;28;20440;-73
2023/01/27 06:54:43;;;;;;;10.70;9.60;;;3.30;99.90;;;;;;4957270;28;20494;-75
2023/01/27 06:57:11;;;;;;;10.07;9.07;;;3.40;99.90;;;;;;4968178;28;20802;-73
2023/01/27 06:59:38;;;;;;;10.43;9.30;;;3.40;99.90;;;;;;4962775;28;20818;-73
2023/01/27 07:02:04;;;;;;;10.30;9.30;;;3.40;99.90;;;;;;4959814;28;20440;-75
2023/01/27 07:04:31;;;;;;;11.80;10.32;;;3.40;99.90;;;;;;4963815;28;20424;-72
2023/01/27 07:06:58;;;;;;;9.90;8.90;;;3.40;99.90;;;;;;4966434;28;20440;-73
2023/01/27 07:09:24;;;;;;;9.47;8.47;;;3.50;99.90;;;;;;4969543;28;21004;-74
2023/01/27 07:11:52;;;;;;;9.93;8.93;;;3.50;99.90;;;;;;4969163;28;20918;-74
2023/01/27 07:14:20;;;;;;;10.98;9.88;;;3.50;99.90;;;;;;4955705;28;22048;-73
2023/01/27 07:16:48;;;;;;;10.27;8.80;;;3.50;99.90;;;;;;4959593;28;20477;-72
2023/01/27 07:19:15;;;;;;;9.93;8.93;;;3.50;99.90;;;;;;4959314;28;20437;-72
2023/01/27 07:21:42;;;;;;;11.15;10.02;;;3.50;99.90;;;;;;4959139;28;20535;-73
2023/01/27 07:24:09;;;;;;;11.15;10.07;;;3.60;99.90;;;;;;4967404;28;20439;-72
2023/01/27 07:26:35;;;;;;;9.32;8.43;;;3.60;99.90;;;;;;4964799;28;20449;-73
2023/01/27 07:29:02;;;;;;;9.48;8.57;;;3.60;99.90;;;;;;4968889;28;20915;-72
2023/01/27 07:31:30;;;;;;;9.20;8.30;;;3.60;99.90;;;;;;4961358;28;20449;-73
2023/01/27 07:33:57;;;;;;;9.30;8.35;;;3.70;99.90;;;;;;4963656;28;20447;-72
2023/01/27 07:36:24;;;;;;;8.45;7.65;;;3.70;99.90;;;;;;4968226;28;20444;-74
2023/01/27 07:38:51;;;;;;;9.65;8.65;;;3.70;99.90;;;;;;4962964;28;20452;-72
2023/01/27 07:41:18;;;;;;;11.13;10.02;;;3.70;99.90;;;;;;4967816;28;20456;-73
2023/01/27 07:43:45;;;;;;;10.13;9.10;;;3.70;99.90;;;;;;4969896;28;20918;-72
2023/01/27 07:46:11;;;;;;;9.10;8.20;;;3.80;99.90;;;;;;4968438;28;21341;-73
2023/01/27 07:48:39;;;;;;;9.25;8.35;;;3.80;99.90;;;;;;4970930;28;20448;-72
2023/01/27 07:51:06;;;;;;;9.20;8.40;;;3.80;99.90;;;;;;4970531;28;20442;-72
2023/01/27 07:53:33;;;;;;;9.60;8.70;;;3.90;99.90;;;;;;4963781;28;21004;-72
2023/01/27 07:56:00;;;;;;;9.02;8.13;;;4.00;99.90;;;;;;4967703;28;20427;-73
2023/01/27 07:58:26;;;;;;;9.38;8.48;;;4.00;99.90;;;;;;4964871;28;20438;-73
2023/01/27 08:00:53;;;;;;;8.50;7.70;;;4.00;99.90;;;;;;4966289;28;20447;-72
2023/01/27 08:03:22;;;;;;;8.80;7.90;;;4.00;99.90;;;;;;4963753;28;20436;-73
2023/01/27 08:05:50;;;;;;;8.80;7.90;;;4.10;99.90;;;;;;4963138;28;20459;-72
2023/01/27 08:08:18;;;;;;;9.35;8.10;;;4.00;99.90;;;;;;4965234;28;20435;-73
2023/01/27 08:10:48;;;;;;;9.30;8.40;;;4.10;99.90;;;;;;4968087;28;20458;-72
2023/01/27 08:13:14;;;;;;;8.73;7.93;;;4.10;99.90;;;;;;4953925;28;20448;-72
2023/01/27 08:15:41;;;;;;;9.10;8.10;;;4.10;99.90;;;;;;4965591;28;20448;-72
2023/01/27 08:18:09;;;;;;;8.98;8.07;;;4.00;99.90;;;;;;4969338;28;20447;-72
2023/01/27 08:20:36;;;;;;;8.80;7.90;;;4.10;99.90;;;;;;4965478;28;20443;-72
2023/01/27 08:23:04;;;;;;;9.80;8.00;;;4.10;99.90;;;;;;4971248;23;20548;-79
2023/01/27 08:25:31;;;;;;;8.98;8.18;;;4.20;99.90;;;;;;4947591;29;21446;-79
2023/01/27 08:27:58;;;;;;;8.37;7.57;;;4.20;99.90;;;;;;4946344;28;20481;-78
2023/01/27 08:30:25;;;;;;;8.60;7.80;;;4.30;99.90;;;;;;4937456;29;20929;-78
2023/01/27 08:32:52;;;;;;;8.75;7.90;;;4.40;99.90;;;;;;4934677;29;20526;-78
2023/01/27 08:35:19;;;;;;;9.03;8.23;;;4.50;99.90;;;;;;4930348;29;20427;-78
2023/01/27 08:37:47;;;;;;;9.23;8.30;;;4.60;99.90;;;;;;4929337;29;20443;-78
2023/01/27 08:40:15;;;;;;;8.32;7.53;;;4.70;99.90;;;;;;4928052;29;20463;-79
2023/01/27 08:42:42;;;;;;;7.28;6.57;;;4.80;99.90;;;;;;4929478;29;20469;-78
2023/01/27 08:45:09;;;;;;;7.65;6.85;;;4.90;99.90;;;;;;4930023;29;20436;-78
2023/01/27 08:47:36;;;;;;;6.63;6.13;;;4.90;99.90;;;;;;4931990;29;20962;-78
2023/01/27 08:50:02;;;;;;;7.07;6.47;;;4.90;99.90;;;;;;4933130;29;20870;-78
2023/01/27 08:52:30;;;;;;;7.17;6.57;;;5.00;99.90;;;;;;4932275;29;20883;-78
2023/01/27 08:54:57;;;;;;;6.40;5.90;;;5.00;99.90;;;;;;4932629;29;20927;-77
2023/01/27 08:57:26;;;;;;;6.50;5.90;;;5.20;99.90;;;;;;4926943;29;20450;-78
2023/01/27 08:59:52;;;;;;;6.18;5.60;;;5.30;99.90;;;;;;4933863;29;20440;-78
2023/01/27 09:02:21;;;;;;;7.55;6.85;;;5.50;99.90;;;;;;4929322;29;20818;-77
2023/01/27 09:04:47;;;;;;;5.63;5.13;;;5.70;99.90;;;;;;4930698;29;20592;-78
2023/01/27 09:07:14;;;;;;;5.80;5.20;;;5.90;99.90;;;;;;4932110;29;20439;-79
2023/01/27 09:09:41;;;;;;;6.10;5.60;;;6.10;99.80;;;;;;4935105;29;20439;-76
2023/01/27 09:12:08;;;;;;;5.80;5.30;;;6.30;99.20;;;;;;4934496;29;20457;-77
2023/01/27 09:14:36;;;;;;;4.97;4.55;;;6.50;98.70;;;;;;4929092;29;20515;-77
2023/01/27 09:17:03;;;;;;;5.10;4.70;;;6.70;97.60;;;;;;4923790;29;20443;-78
2023/01/27 09:19:30;;;;;;;3.85;3.55;;;6.90;96.90;;;;;;4929619;29;20443;-76
2023/01/27 09:21:57;;;;;;;3.58;3.28;;;7.00;95.90;;;;;;4930067;29;20459;-78
2023/01/27 09:24:24;;;;;;;3.53;3.22;;;7.10;95.60;;;;;;4932369;29;20439;-78
2023/01/27 09:26:50;;;;;;;3.60;3.30;;;7.10;95.30;;;;;;4932692;29;20443;-77
2023/01/27 09:29:17;;;;;;;3.80;3.50;;;6.90;95.50;;;;;;4931910;29;20449;-77
2023/01/27 09:31:45;;;;;;;3.42;3.22;;;6.70;95.40;;;;;;4924205;29;20441;-75
2023/01/27 09:34:12;;;;;;;3.50;3.20;;;6.50;96.30;;;;;;4932197;29;20979;-77
2023/01/27 09:36:43;;;;;;;3.30;3.10;;;6.30;96.60;;;;;;4929316;29;20444;-76
2023/01/27 09:39:11;;;;;;;3.33;3.03;;;6.20;96.80;;;;;;4933283;29;20496;-77
2023/01/27 09:42:04;;;;;;;4.47;4.07;;;6.20;97.40;;;;;;4931357;29;20458;-77
2023/01/27 09:45:01;;;;;;;4.60;4.03;;;6.30;97.60;;;;;;4929127;29;20446;-77
2023/01/27 09:47:47;;;;;;;3.35;3.05;;;6.50;97.50;;;;;;4924966;29;21033;-77
2023/01/27 09:50:43;;;;;;;2.75;2.55;;;6.80;96.70;;;;;;4932637;29;20454;-77
2023/01/27 09:53:53;;;;;;;2.70;2.50;;;7.00;95.60;;;;;;4925471;29;20880;-77
2023/01/27 09:56:27;;;;;;;3.17;2.60;;;7.30;94.30;;;;;;4923614;29;20992;-77
2023/01/27 09:59:15;;;;;;;3.58;2.90;;;7.40;94.30;;;;;;4925291;29;20443;-76
2023/01/27 10:01:53;;;;;;;3.03;2.83;;;7.60;94.20;;;;;;4934387;29;20502;-77
2023/01/27 10:04:40;;;;;;;3.20;3.00;;;7.70;92.90;;;;;;4933430;29;20423;-76
2023/01/27 10:07:30;;;;;;;2.90;2.70;;;7.70;92.70;;;;;;4930420;29;20439;-76
2023/01/27 10:10:19;;;;;;;2.90;2.70;;;7.70;92.40;;;;;;4946688;29;20450;-76
2023/01/27 10:12:59;;;;;;;2.90;2.55;;;7.60;92.90;;;;;;4930780;29;20444;-77
2023/01/27 10:15:40;;;;;;;3.10;2.90;;;7.50;93.40;;;;;;4931127;29;21178;-77
2023/01/27 10:18:21;;;;;;;3.40;2.65;;;7.40;93.70;;;;;;4933349;29;20469;-76
2023/01/27 10:20:59;;;;;;;3.03;2.30;;;7.30;93.20;;;;;;4936071;29;20475;-76
2023/01/27 10:23:37;;;;;;;2.70;2.50;;;7.20;93.20;;;;;;4944487;29;20909;-75
2023/01/27 10:26:14;;;;;;;2.60;2.40;;;7.30;93.50;;;;;;4945540;29;20473;-77
2023/01/27 10:28:47;;;;;;;2.90;2.40;;;7.40;93.40;;;;;;4944075;29;20846;-76
2023/01/27 10:31:20;;;;;;;3.00;2.53;;;7.40;93.50;;;;;;4942494;29;20439;-75
2023/01/27 10:33:51;;;;;;;3.30;3.00;;;7.40;93.80;;;;;;4947174;29;20472;-75
2023/01/27 10:36:26;;;;;;;2.78;2.58;;;7.50;93.60;;;;;;4949858;29;20424;-78
2023/01/27 10:39:05;;;;;;;3.25;2.95;;;7.60;93.40;;;;;;4947949;29;20468;-74
2023/01/27 10:41:43;;;;;;;3.10;2.80;;;7.60;92.70;;;;;;4942104;29;20443;-76
2023/01/27 10:44:21;;;;;;;3.35;2.90;;;7.50;93.10;;;;;;4942951;29;20432;-78
2023/01/27 10:46:57;;;;;;;4.10;2.50;;;7.50;92.70;;;;;;4936031;29;20442;-77
2023/01/27 10:49:29;;;;;;;3.30;3.00;;;7.40;92.90;;;;;;4944102;29;20431;-75
2023/01/27 10:52:03;;;;;;;3.10;2.80;;;7.10;93.80;;;;;;4943981;29;20455;-76
2023/01/27 10:54:35;;;;;;;3.30;3.00;;;7.00;94.30;;;;;;4947539;29;20476;-75
2023/01/27 10:57:07;;;;;;;4.00;2.80;;;7.00;94.70;;;;;;4924852;29;20494;-76
2023/01/27 10:59:40;;;;;;;3.80;2.80;;;6.90;94.70;;;;;;4938725;29;20472;-77
2023/01/27 11:02:15;;;;;;;3.10;2.90;;;6.90;94.80;;;;;;4925252;29;20504;-76
2023/01/27 11:04:46;;;;;;;3.15;2.85;;;6.90;94.40;;;;;;4937712;29;20434;-76
2023/01/27 11:07:18;;;;;;;2.92;2.65;;;7.00;94.70;;;;;;4936118;29;20420;-77
2023/01/27 11:09:52;;;;;;;2.80;2.60;;;7.20;94.60;;;;;;4921803;29;21799;-76
2023/01/27 11:12:30;;;;;;;3.90;2.70;;;7.50;93.50;;;;;;4932001;29;20512;-77
2023/01/27 11:14:58;;;;;;;2.67;2.47;;;7.70;92.50;;;;;;4921435;29;20490;-77
2023/01/27 11:17:30;;;;;;;2.80;2.60;;;7.80;92.00;;;;;;4934366;29;20886;-76
2023/01/27 11:20:05;;;;;;;2.60;2.20;;;7.90;91.60;;;;;;4948203;28;20423;-76
2023/01/27 11:22:42;;;;;;;4.35;2.75;;;7.90;91.60;;;;;;4948919;29;20450;-75
2023/01/27 11:25:22;;;;;;;4.60;2.45;;;7.90;91.10;;;;;;4946120;29;20451;-78
2023/01/27 11:28:01;;;;;;;3.00;1.92;;;7.80;91.00;;;;;;4942147;29;20452;-77
2023/01/27 11:30:38;;;;;;;2.60;2.20;;;7.70;91.40;;;;;;4933745;29;20440;-77
2023/01/27 11:33:15;;;;;;;2.10;1.90;;;7.80;91.40;;;;;;4931354;29;20435;-78
2023/01/27 11:35:42;;;;;;;3.30;2.10;;;7.90;91.10;;;;;;4934978;29;20431;-81
2023/01/27 11:38:18;;;;;;;3.10;2.33;;;7.80;91.30;;;;;;4926331;29;20526;-76
2023/01/27 11:40:48;;;;;;;3.60;1.90;;;7.70;91.40;;;;;;4931917;29;20434;-77
2023/01/27 11:43:18;;;;;;;1.55;1.45;;;7.70;91.70;;;;;;4926371;29;20526;-77
2023/01/27 11:45:46;;;;;;;3.05;2.10;;;7.70;91.30;;;;;;4933076;29;20439;-67
2023/01/27 11:48:16;;;;;;;2.50;1.60;;;7.90;92.10;;;;;;4927655;29;20442;-70
2023/01/27 11:50:44;;;;;;;2.53;1.50;;;8.10;91.10;;;;;;4931692;29;20448;-74
2023/01/27 11:53:20;;;;;;;2.78;1.50;;;8.20;90.40;;;;;;4934580;29;20447;-75
2023/01/27 11:55:50;;;;;;;3.47;1.50;;;8.20;90.00;;;;;;4934381;29;20447;-74
2023/01/27 11:58:23;;;;;;;3.40;2.03;;;8.20;89.70;;;;;;4935543;29;20440;-76
2023/01/27 12:00:56;;;;;;;2.80;1.90;;;8.10;90.30;;;;;;4935348;29;20454;-76
2023/01/27 12:03:28;;;;;;;4.50;1.60;;;8.10;90.40;;;;;;4930258;29;20532;-76
2023/01/27 12:05:56;;;;;;;3.08;1.60;;;8.00;90.70;;;;;;4930413;29;20466;-76
2023/01/27 12:08:38;;;;;;;3.22;1.27;;;8.00;90.50;;;;;;4929723;29;20448;-76
2023/01/27 12:11:24;;;;;;;2.53;1.42;;;7.90;90.60;;;;;;4934833;29;20442;-75
2023/01/27 12:13:55;;;;;;;4.00;1.20;;;7.90;90.40;;;;;;4932382;29;20454;-76
2023/01/27 12:16:27;;;;;;;4.05;1.20;;;7.80;90.60;;;;;;4931734;29;20469;-76
2023/01/27 12:18:59;;;;;;;1.60;1.00;;;7.80;90.80;;;;;;4931243;29;20748;-75
2023/01/27 12:21:52;;;;;;;3.15;1.20;;;7.80;90.40;;;;;;4928828;29;20562;-75
2023/01/27 12:24:27;;;;;;;1.63;0.90;;;7.70;90.70;;;;;;4914984;29;20439;-75
2023/01/27 12:26:55;;;;;;;2.40;1.05;;;7.70;90.30;;;;;;4931901;29;20443;-75
2023/01/27 12:29:28;;;;;;;4.60;1.30;;;7.60;90.90;;;;;;4928395;29;20442;-75
2023/01/27 12:31:57;;;;;;;4.03;1.10;;;7.60;90.90;;;;;;4933781;29;20443;-75
2023/01/27 12:34:28;;;;;;;3.72;1.50;;;7.60;90.70;;;;;;4946897;29;20439;-76
2023/01/27 12:36:56;;;;;;;8.15;4.45;;;7.60;91.20;;;;;;4945909;29;20443;-76
2023/01/27 12:39:40;;;;;;;1.80;0.98;;;7.60;90.50;;;;;;4930019;29;20436;-76
2023/01/27 12:42:29;;;;;;;1.75;1.00;;;7.50;89.50;;;;;;4929304;29;20466;-75
2023/01/27 12:44:56;;;;;;;2.22;1.10;;;7.40;90.30;;;;;;4928693;29;20443;-76
2023/01/27 12:47:26;;;;;;;3.47;1.10;;;7.40;90.70;;;;;;4933662;29;20431;-75
2023/01/27 12:50:19;;;;;;;1.58;1.10;;;7.30;90.30;;;;;;4933725;29;20446;-76
2023/01/27 12:52:54;;;;;;;1.25;0.90;;;7.20;90.20;;;;;;4934042;29;20485;-76
2023/01/27 12:55:33;;;;;;;1.85;0.70;;;7.20;89.80;;;;;;4936430;29;20426;-76
2023/01/27 12:58:00;;;;;;;1.50;0.70;;;7.20;89.70;;;;;;4929599;29;20447;-76
2023/01/27 13:00:28;;;;;;;2.00;0.90;;;7.20;89.70;;;;;;4926987;29;20443;-75
2023/01/27 13:03:05;;;;;;;3.53;1.00;;;7.20;90.00;;;;;;4928606;29;20443;-76
2023/01/27 13:05:37;;;;;;;5.60;1.20;;;7.30;89.60;;;;;;4927937;29;20454;-76
2023/01/27 13:08:12;;;;;;;1.98;1.10;;;7.30;90.20;;;;;;4922326;29;20589;-77
2023/01/27 13:10:39;;;;;;;2.33;1.30;;;7.20;90.20;;;;;;4934120;29;20430;-77
2023/01/27 13:13:16;;;;;;;4.70;2.72;;;7.20;90.20;;;;;;4925708;29;20443;-77
2023/01/27 13:15:52;;;;;;;4.15;2.30;;;7.20;90.70;;;;;;4928170;29;20971;-78
2023/01/27 13:18:20;;;;;;;4.53;1.77;;;7.10;90.70;;;;;;4919526;29;20525;-78
2023/01/27 13:20:50;;;;;;;3.22;1.30;;;7.10;90.60;;;;;;4929467;29;20427;-78
2023/01/27 13:23:22;;;;;;;3.08;1.20;;;7.00;90.50;;;;;;4928106;29;20492;-77
2023/01/27 13:25:53;;;;;;;3.00;0.93;;;6.90;90.60;;;;;;4933705;29;20489;-77
2023/01/27 13:28:23;;;;;;;2.23;1.07;;;6.80;91.10;;;;;;4924258;29;20540;-76
2023/01/27 13:30:54;;;;;;;1.75;1.20;;;6.80;91.40;;;;;;4927855;29;20451;-77